Menlow, Texas
Current Conditions -  °F | °C
As of 12:15 PM on Thursday 18 Dec 2014 (Local Time) from KINJ Reporting Station
Haze Haze  
Wind Chill: 50°   Ceiling: 500
Heat Index: 50°   Visibility: 5mi
Dew Point: 48°   Wind: 0mph
Humidity: 94%   Direction: NA
Pressure: 30.14"   Gusts: NA
Location:  31.908°N, 97.0524°W
Report Text: KINJ 181815Z AUTO 00000KT 5SM BR OVC005 10/09 A3014 RMK AO2 T01000090
Loading
Personal Weather Stations






























Interactive Weather Map New forecast layout! Learn more

10-Day Weather Forecast

Advertisements
Track Severe Weather on mobile